Dubuque, Iowa
Current Conditions -  °F | °C
As of 7:53 AM on Tuesday 27 Jan 2015 (Local Time) from KDBQ Reporting Station
Overcast Overcast  
Wind Chill: 16°   Ceiling: 1300
Heat Index: 28°   Visibility: 10mi
Dew Point: 22°   Wind: 16mph
Humidity: 78%   Direction: 20°NNE
Pressure: 30.09"   Gusts: NA
Location:  42.5°N, 90.66°W
Report Text: KDBQ 271353Z 02014KT 10SM OVC013 M02/M06 A3009 RMK AO2 SLP204 T10221056
Loading
Personal Weather Stations






























Interactive Weather Map New forecast layout! Learn more

10-Day Weather Forecast

Advertisements
Track Severe Weather on mobile